createdAt,value
2018-05-23T00:00:54.645Z,1006.11
2018-05-23T00:01:54.650Z,1006.08
2018-05-23T00:02:54.654Z,1006.08
2018-05-23T00:03:54.657Z,1006.08
2018-05-23T00:04:54.662Z,1006.05
2018-05-23T00:05:54.664Z,1006.05
2018-05-23T00:06:54.667Z,1006.03
2018-05-23T00:07:54.672Z,1006.09
2018-05-23T00:08:54.680Z,1006.10
2018-05-23T00:09:54.679Z,1006.06
2018-05-23T00:10:54.682Z,1006.05
2018-05-23T00:11:54.685Z,1006.07
2018-05-23T00:12:54.689Z,1006.07
2018-05-23T00:13:54.691Z,1006.10
2018-05-23T00:14:54.696Z,1006.13
2018-05-23T00:15:54.699Z,1006.10
2018-05-23T00:16:54.703Z,1006.09
2018-05-23T00:17:54.708Z,1006.10
2018-05-23T00:18:54.710Z,1006.11
2018-05-23T00:19:54.717Z,1006.11
2018-05-23T00:20:54.718Z,1006.10
2018-05-23T00:21:54.720Z,1006.14
2018-05-23T00:22:54.726Z,1006.12
2018-05-23T00:23:54.728Z,1006.13
2018-05-23T00:24:54.734Z,1006.14
2018-05-23T00:25:54.735Z,1006.14
2018-05-23T00:26:54.739Z,1006.12
2018-05-23T00:27:54.743Z,1006.12
2018-05-23T00:28:54.747Z,1006.14
2018-05-23T00:29:54.750Z,1006.18
2018-05-23T00:30:54.753Z,1006.15
2018-05-23T00:31:54.757Z,1006.17
2018-05-23T00:32:54.760Z,1006.16
2018-05-23T00:33:54.763Z,1006.15
2018-05-23T00:34:54.767Z,1006.18
2018-05-23T00:35:54.771Z,1006.12
2018-05-23T00:36:54.774Z,1006.16
2018-05-23T00:37:54.778Z,1006.15
2018-05-23T00:38:54.781Z,1006.18
2018-05-23T00:39:54.789Z,1006.17
2018-05-23T00:40:54.790Z,1006.12
2018-05-23T00:41:54.791Z,1006.15
2018-05-23T00:42:54.795Z,1006.14
2018-05-23T00:43:54.799Z,1006.14
2018-05-23T00:44:54.803Z,1006.16
2018-05-23T00:45:54.806Z,1006.15
2018-05-23T00:46:54.809Z,1006.14
2018-05-23T00:47:54.817Z,1006.15
2018-05-23T00:48:54.816Z,1006.09
2018-05-23T00:49:54.821Z,1006.14
2018-05-23T00:50:54.825Z,1006.10
2018-05-23T00:51:54.826Z,1006.13
2018-05-23T00:52:54.835Z,1006.12
2018-05-23T00:53:54.834Z,1006.13
2018-05-23T00:54:54.838Z,1006.12
2018-05-23T00:55:54.843Z,1006.11
2018-05-23T00:56:54.844Z,1006.09
2018-05-23T00:57:54.852Z,1006.16
2018-05-23T00:58:54.851Z,1006.14
2018-05-23T00:59:54.867Z,1006.19
2018-05-23T01:00:54.862Z,1006.17
2018-05-23T01:01:54.863Z,1006.20
2018-05-23T01:02:54.868Z,1006.19
2018-05-23T01:03:54.870Z,1006.15
2018-05-23T01:04:54.874Z,1006.18
2018-05-23T01:05:54.877Z,1006.17
2018-05-23T01:06:54.879Z,1006.17
2018-05-23T01:07:54.884Z,1006.14
2018-05-23T01:08:54.888Z,1006.17
2018-05-23T01:09:54.891Z,1006.24
2018-05-23T01:10:54.895Z,1006.17
2018-05-23T01:11:54.901Z,1006.17
2018-05-23T01:12:54.902Z,1006.19
2018-05-23T01:13:54.904Z,1006.18
2018-05-23T01:14:54.912Z,1006.17
2018-05-23T01:15:54.912Z,1006.19
2018-05-23T01:16:54.914Z,1006.18
2018-05-23T01:17:54.924Z,1006.14
2018-05-23T01:18:54.922Z,1006.17
2018-05-23T01:19:54.926Z,1006.23
2018-05-23T01:20:54.932Z,1006.17
2018-05-23T01:21:54.932Z,1006.20
2018-05-23T01:22:54.938Z,1006.18
2018-05-23T01:23:54.939Z,1006.22
2018-05-23T01:24:54.944Z,1006.22
2018-05-23T01:25:54.945Z,1006.21
2018-05-23T01:26:54.952Z,1006.18
2018-05-23T01:27:54.953Z,1006.21
2018-05-23T01:28:54.956Z,1006.16
2018-05-23T01:29:54.959Z,1006.16
2018-05-23T01:30:54.963Z,1006.17
2018-05-23T01:31:54.967Z,1006.20
2018-05-23T01:32:54.971Z,1006.17
2018-05-23T01:33:54.973Z,1006.17
2018-05-23T01:34:54.977Z,1006.17
2018-05-23T01:35:54.980Z,1006.14
2018-05-23T01:36:54.984Z,1006.19
2018-05-23T01:37:54.988Z,1006.17
2018-05-23T01:38:54.991Z,1006.17
2018-05-23T01:39:54.995Z,1006.17
2018-05-23T01:40:54.998Z,1006.22
2018-05-23T01:41:55.001Z,1006.15
2018-05-23T01:42:55.004Z,1006.14
2018-05-23T01:43:55.008Z,1006.17
2018-05-23T01:44:55.011Z,1006.23
2018-05-23T01:45:55.014Z,1006.19
2018-05-23T01:46:55.019Z,1006.20
2018-05-23T01:47:55.023Z,1006.21
2018-05-23T01:48:55.025Z,1006.20
2018-05-23T01:49:55.029Z,1006.21
2018-05-23T01:50:55.031Z,1006.22
2018-05-23T01:51:55.046Z,1006.20
2018-05-23T01:52:55.039Z,1006.26
2018-05-23T01:53:55.041Z,1006.23
2018-05-23T01:54:55.046Z,1006.28
2018-05-23T01:55:55.049Z,1006.26
2018-05-23T01:56:55.052Z,1006.30
2018-05-23T01:57:55.055Z,1006.31
2018-05-23T01:58:55.058Z,1006.31
2018-05-23T01:59:55.069Z,1006.31
2018-05-23T02:00:55.066Z,1006.31
2018-05-23T02:01:55.068Z,1006.36
2018-05-23T02:02:55.072Z,1006.32
2018-05-23T02:03:55.076Z,1006.31
2018-05-23T02:04:55.079Z,1006.31
2018-05-23T02:05:55.081Z,1006.33
2018-05-23T02:06:55.085Z,1006.28
2018-05-23T02:07:55.088Z,1006.26
2018-05-23T02:08:55.094Z,1006.30
2018-05-23T02:09:55.095Z,1006.37
2018-05-23T02:10:55.099Z,1006.32
2018-05-23T02:11:55.106Z,1006.30
2018-05-23T02:12:55.107Z,1006.27
2018-05-23T02:13:55.113Z,1006.22
2018-05-23T02:14:55.112Z,1006.24
2018-05-23T02:15:55.115Z,1006.28
2018-05-23T02:16:55.119Z,1006.26
2018-05-23T02:17:55.121Z,1006.27
2018-05-23T02:18:55.124Z,1006.23
2018-05-23T02:19:55.128Z,1006.23
2018-05-23T02:20:55.131Z,1006.21
2018-05-23T02:21:55.134Z,1006.27
2018-05-23T02:22:55.138Z,1006.24
2018-05-23T02:23:55.141Z,1006.28
2018-05-23T02:24:55.145Z,1006.29
2018-05-23T02:25:55.147Z,1006.29
2018-05-23T02:26:55.150Z,1006.30
2018-05-23T02:27:55.152Z,1006.30
2018-05-23T02:28:55.157Z,1006.30
2018-05-23T02:29:55.160Z,1006.28
2018-05-23T02:30:55.163Z,1006.27
2018-05-23T02:31:55.167Z,1006.27
2018-05-23T02:32:55.170Z,1006.30
2018-05-23T02:33:55.173Z,1006.29
2018-05-23T02:34:55.175Z,1006.23
2018-05-23T02:35:55.180Z,1006.27
2018-05-23T02:36:55.184Z,1006.28
2018-05-23T02:37:55.185Z,1006.29
2018-05-23T02:38:55.189Z,1006.26
2018-05-23T02:39:55.192Z,1006.24
2018-05-23T02:40:55.197Z,1006.25
2018-05-23T02:41:55.199Z,1006.31
2018-05-23T02:42:55.203Z,1006.29
2018-05-23T02:43:55.206Z,1006.28
2018-05-23T02:44:55.209Z,1006.30
2018-05-23T02:45:55.212Z,1006.36
2018-05-23T02:46:55.216Z,1006.32
2018-05-23T02:47:55.220Z,1006.38
2018-05-23T02:48:55.225Z,1006.35
2018-05-23T02:49:55.224Z,1006.37
2018-05-23T02:50:55.228Z,1006.37
2018-05-23T02:51:55.233Z,1006.37
2018-05-23T02:52:55.238Z,1006.39
2018-05-23T02:53:55.238Z,1006.39
2018-05-23T02:54:55.240Z,1006.44
2018-05-23T02:55:55.244Z,1006.40
2018-05-23T02:56:55.248Z,1006.40
2018-05-23T02:57:55.251Z,1006.42
2018-05-23T02:58:55.253Z,1006.38
2018-05-23T02:59:55.257Z,1006.38
2018-05-23T03:00:55.260Z,1006.44
2018-05-23T03:01:55.263Z,1006.43
2018-05-23T03:02:55.302Z,1006.43
2018-05-23T03:03:55.270Z,1006.42
2018-05-23T03:04:55.274Z,1006.46
2018-05-23T03:05:55.278Z,1006.44
2018-05-23T03:06:55.280Z,1006.48
2018-05-23T03:07:55.283Z,1006.46
2018-05-23T03:08:55.286Z,1006.54
2018-05-23T03:09:55.289Z,1006.54
2018-05-23T03:10:55.291Z,1006.55
2018-05-23T03:11:55.296Z,1006.59
2018-05-23T03:12:55.298Z,1006.53
2018-05-23T03:13:55.302Z,1006.61
2018-05-23T03:14:55.306Z,1006.55
2018-05-23T03:15:55.312Z,1006.56
2018-05-23T03:16:55.312Z,1006.59
2018-05-23T03:17:55.312Z,1006.59
2018-05-23T03:18:55.317Z,1006.59
2018-05-23T03:19:55.321Z,1006.57
2018-05-23T03:20:55.324Z,1006.62
2018-05-23T03:21:55.328Z,1006.64
2018-05-23T03:22:55.335Z,1006.65
2018-05-23T03:23:55.334Z,1006.61
2018-05-23T03:24:55.343Z,1006.63
2018-05-23T03:25:55.340Z,1006.65
2018-05-23T03:26:55.344Z,1006.67
2018-05-23T03:27:55.347Z,1006.68
2018-05-23T03:28:55.350Z,1006.66
2018-05-23T03:29:55.353Z,1006.62
2018-05-23T03:30:55.357Z,1006.66
2018-05-23T03:31:55.368Z,1006.66
2018-05-23T03:32:55.363Z,1006.67
2018-05-23T03:33:55.366Z,1006.67
2018-05-23T03:34:55.369Z,1006.68
2018-05-23T03:35:55.372Z,1006.73
2018-05-23T03:36:55.381Z,1006.66
2018-05-23T03:37:55.380Z,1006.72
2018-05-23T03:38:55.382Z,1006.75
2018-05-23T03:39:55.384Z,1006.73
2018-05-23T03:40:55.392Z,1006.78
2018-05-23T03:41:55.391Z,1006.79
2018-05-23T03:42:55.394Z,1006.79
2018-05-23T03:43:55.397Z,1006.75
2018-05-23T03:44:55.402Z,1006.77
2018-05-23T03:45:55.404Z,1006.80
2018-05-23T03:46:55.407Z,1006.81
2018-05-23T03:47:55.410Z,1006.80
2018-05-23T03:48:55.414Z,1006.81
2018-05-23T03:49:55.416Z,1006.84
2018-05-23T03:50:55.420Z,1006.85
2018-05-23T03:51:55.424Z,1006.89
2018-05-23T03:52:55.427Z,1006.91
2018-05-23T03:53:55.429Z,1006.88
2018-05-23T03:54:55.434Z,1006.91
2018-05-23T03:55:55.436Z,1006.93
2018-05-23T03:56:55.439Z,1006.89
2018-05-23T03:57:55.442Z,1006.94
2018-05-23T03:58:55.445Z,1006.91
2018-05-23T03:59:55.450Z,1006.96
2018-05-23T04:00:55.451Z,1006.92
2018-05-23T04:01:55.454Z,1006.94
2018-05-23T04:02:55.458Z,1006.99
2018-05-23T04:03:55.460Z,1006.98
2018-05-23T04:04:55.531Z,1006.97
2018-05-23T04:05:55.467Z,1007.00
2018-05-23T04:06:55.471Z,1006.99
2018-05-23T04:07:55.474Z,1007.03
2018-05-23T04:08:55.479Z,1007.00
2018-05-23T04:09:55.480Z,1007.03
2018-05-23T04:10:55.485Z,1007.00
2018-05-23T04:11:55.488Z,1007.05
2018-05-23T04:12:55.489Z,1007.05
2018-05-23T04:13:55.493Z,1007.06
2018-05-23T04:14:55.496Z,1007.04
2018-05-23T04:15:55.499Z,1007.04
2018-05-23T04:16:55.505Z,1007.10
2018-05-23T04:17:55.506Z,1007.09
2018-05-23T04:18:55.509Z,1007.07
2018-05-23T04:19:55.513Z,1007.07
2018-05-23T04:20:55.516Z,1007.06
2018-05-23T04:21:55.519Z,1007.09
2018-05-23T04:22:55.523Z,1007.13
2018-05-23T04:23:55.525Z,1007.13
2018-05-23T04:24:55.611Z,1007.15
2018-05-23T04:25:55.532Z,1007.14
2018-05-23T04:26:55.536Z,1007.16
2018-05-23T04:27:55.538Z,1007.17
2018-05-23T04:28:55.543Z,1007.16
2018-05-23T04:29:55.545Z,1007.20
2018-05-23T04:30:55.549Z,1007.18
2018-05-23T04:31:55.553Z,1007.22
2018-05-23T04:32:55.556Z,1007.28
2018-05-23T04:33:55.559Z,1007.28
2018-05-23T04:34:55.563Z,1007.26
2018-05-23T04:35:55.567Z,1007.24
2018-05-23T04:36:55.570Z,1007.24
2018-05-23T04:37:55.573Z,1007.29
2018-05-23T04:38:55.576Z,1007.28
2018-05-23T04:39:55.579Z,1007.24
2018-05-23T04:40:55.584Z,1007.27
2018-05-23T04:41:55.587Z,1007.25
2018-05-23T04:42:55.590Z,1007.28
2018-05-23T04:43:55.595Z,1007.30
2018-05-23T04:44:55.596Z,1007.32
2018-05-23T04:45:55.600Z,1007.35
2018-05-23T04:46:55.603Z,1007.34
2018-05-23T04:47:55.607Z,1007.35
2018-05-23T04:48:55.613Z,1007.36
2018-05-23T04:49:55.613Z,1007.35
2018-05-23T04:50:55.618Z,1007.36
2018-05-23T04:51:55.622Z,1007.37
2018-05-23T04:52:55.625Z,1007.35
2018-05-23T04:53:55.628Z,1007.36
2018-05-23T04:54:55.631Z,1007.36
2018-05-23T04:55:55.635Z,1007.35
2018-05-23T04:56:55.640Z,1007.37
2018-05-23T04:57:55.643Z,1007.39
2018-05-23T04:58:55.646Z,1007.39
2018-05-23T04:59:55.648Z,1007.38
2018-05-23T05:00:55.658Z,1007.47
2018-05-23T05:01:55.656Z,1007.49
2018-05-23T05:02:55.660Z,1007.54
2018-05-23T05:03:55.664Z,1007.51
2018-05-23T05:04:55.666Z,1007.50
2018-05-23T05:05:55.671Z,1007.50
2018-05-23T05:06:55.674Z,1007.56
2018-05-23T05:07:55.677Z,1007.54
2018-05-23T05:08:55.682Z,1007.55
2018-05-23T05:09:55.760Z,1007.56
2018-05-23T05:10:55.689Z,1007.64
2018-05-23T05:11:55.695Z,1007.62
2018-05-23T05:12:55.698Z,1007.61
2018-05-23T05:13:55.698Z,1007.62
2018-05-23T05:14:55.702Z,1007.62
2018-05-23T05:15:55.706Z,1007.62
2018-05-23T05:16:55.710Z,1007.66
2018-05-23T05:17:55.713Z,1007.69
2018-05-23T05:18:55.718Z,1007.72
2018-05-23T05:19:55.721Z,1007.71
2018-05-23T05:20:55.725Z,1007.71
2018-05-23T05:21:55.728Z,1007.75
2018-05-23T05:22:55.732Z,1007.80
2018-05-23T05:23:55.737Z,1007.81
2018-05-23T05:24:55.812Z,1007.83
2018-05-23T05:25:55.745Z,1007.83
2018-05-23T05:26:55.746Z,1007.88
2018-05-23T05:27:55.751Z,1007.92
2018-05-23T05:28:55.755Z,1007.94
2018-05-23T05:29:55.757Z,1008.00
2018-05-23T05:30:55.762Z,1007.98
2018-05-23T05:31:55.767Z,1007.99
2018-05-23T05:32:55.771Z,1007.97
2018-05-23T05:33:55.775Z,1007.99
2018-05-23T05:34:55.777Z,1007.98
2018-05-23T05:35:55.781Z,1007.99
2018-05-23T05:36:55.786Z,1007.99
2018-05-23T05:37:55.787Z,1008.01
2018-05-23T05:38:55.808Z,1008.05
2018-05-23T05:39:55.797Z,1008.02
2018-05-23T05:40:55.800Z,1008.07
2018-05-23T05:41:55.803Z,1008.08
2018-05-23T05:42:55.807Z,1008.09
2018-05-23T05:43:55.812Z,1008.11
2018-05-23T05:44:55.817Z,1008.13
2018-05-23T05:45:55.818Z,1008.13
2018-05-23T05:46:55.828Z,1008.09
2018-05-23T05:47:55.826Z,1008.10
2018-05-23T05:48:55.829Z,1008.14
2018-05-23T05:49:55.835Z,1008.13
2018-05-23T05:50:55.838Z,1008.14
2018-05-23T05:51:55.842Z,1008.16
2018-05-23T05:52:55.848Z,1008.16
2018-05-23T05:53:55.849Z,1008.18
2018-05-23T05:54:55.854Z,1008.10
2018-05-23T05:55:55.858Z,1008.17
2018-05-23T05:56:55.864Z,1008.19
2018-05-23T05:57:55.865Z,1008.24
2018-05-23T05:58:55.874Z,1008.15
2018-05-23T05:59:55.874Z,1008.20
2018-05-23T06:00:55.878Z,1008.21
2018-05-23T06:01:55.931Z,1008.27
2018-05-23T06:02:55.888Z,1008.26
2018-05-23T06:03:55.890Z,1008.31
2018-05-23T06:04:55.894Z,1008.29
2018-05-23T06:05:55.900Z,1008.33
2018-05-23T06:06:55.902Z,1008.37
2018-05-23T06:07:55.909Z,1008.38
2018-05-23T06:08:55.911Z,1008.41
2018-05-23T06:09:56.003Z,1008.35
2018-05-23T06:10:55.917Z,1008.45
2018-05-23T06:11:55.925Z,1008.45
2018-05-23T06:12:55.928Z,1008.46
2018-05-23T06:13:55.935Z,1008.45
2018-05-23T06:14:55.936Z,1008.49
2018-05-23T06:15:55.939Z,1008.52
2018-05-23T06:16:55.946Z,1008.55
2018-05-23T06:17:55.951Z,1008.54
2018-05-23T06:18:55.953Z,1008.54
2018-05-23T06:19:55.959Z,1008.57
2018-05-23T06:20:55.967Z,1008.61
2018-05-23T06:21:55.967Z,1008.58
2018-05-23T06:22:55.972Z,1008.58
2018-05-23T06:23:55.977Z,1008.62
2018-05-23T06:24:55.982Z,1008.60
2018-05-23T06:25:55.994Z,1008.64
2018-05-23T06:26:55.990Z,1008.63
2018-05-23T06:27:55.994Z,1008.63
2018-05-23T06:28:56.001Z,1008.66
2018-05-23T06:29:56.011Z,1008.63
2018-05-23T06:30:56.010Z,1008.67
2018-05-23T06:31:56.014Z,1008.65
2018-05-23T06:32:56.021Z,1008.63
2018-05-23T06:33:56.023Z,1008.67
2018-05-23T06:34:56.028Z,1008.64
2018-05-23T06:35:56.032Z,1008.65
2018-05-23T06:36:56.038Z,1008.66
2018-05-23T06:37:56.042Z,1008.70
2018-05-23T06:38:56.048Z,1008.65
2018-05-23T06:39:56.052Z,1008.70
2018-05-23T06:40:56.057Z,1008.69
2018-05-23T06:41:56.063Z,1008.70
2018-05-23T06:42:56.067Z,1008.68
2018-05-23T06:43:56.072Z,1008.71
2018-05-23T06:44:56.079Z,1008.75
2018-05-23T06:45:56.082Z,1008.76
2018-05-23T06:46:56.087Z,1008.73
2018-05-23T06:47:56.092Z,1008.73
2018-05-23T06:48:56.099Z,1008.79
2018-05-23T06:49:56.192Z,1008.78
2018-05-23T06:50:56.108Z,1008.78
2018-05-23T06:51:56.113Z,1008.80
2018-05-23T06:52:56.118Z,1008.81
2018-05-23T06:53:56.122Z,1008.82
2018-05-23T06:54:56.129Z,1008.85
2018-05-23T06:55:56.134Z,1008.90
2018-05-23T06:56:56.140Z,1008.88
2018-05-23T06:57:56.144Z,1008.92
2018-05-23T06:58:56.150Z,1008.91
2018-05-23T06:59:56.154Z,1008.94
2018-05-23T07:00:56.161Z,1008.95
2018-05-23T07:01:56.165Z,1008.95
2018-05-23T07:02:56.171Z,1008.94
2018-05-23T07:03:56.176Z,1008.98
2018-05-23T07:04:56.182Z,1008.98
2018-05-23T07:05:56.202Z,1009.00
2018-05-23T07:06:56.193Z,1009.05
2018-05-23T07:07:56.198Z,1009.05
2018-05-23T07:08:56.207Z,1009.06
2018-05-23T07:09:56.208Z,1009.13
2018-05-23T07:10:56.215Z,1009.09
2018-05-23T07:11:56.221Z,1009.07
2018-05-23T07:12:56.227Z,1009.10
2018-05-23T07:13:56.232Z,1009.13
2018-05-23T07:14:56.239Z,1009.10
2018-05-23T07:15:56.244Z,1009.18
2018-05-23T07:16:56.258Z,1009.19
2018-05-23T07:17:56.356Z,1009.18
2018-05-23T07:18:56.261Z,1009.19
2018-05-23T07:19:56.282Z,1009.22
2018-05-23T07:20:56.273Z,1009.21
2018-05-23T07:21:56.281Z,1009.24
2018-05-23T07:22:56.285Z,1009.27
2018-05-23T07:23:56.295Z,1009.28
2018-05-23T07:24:56.297Z,1009.30
2018-05-23T07:25:56.308Z,1009.29
2018-05-23T07:26:56.309Z,1009.31
2018-05-23T07:27:56.316Z,1009.34
2018-05-23T07:28:56.321Z,1009.33
2018-05-23T07:29:56.327Z,1009.35
2018-05-23T07:30:56.353Z,1009.36
2018-05-23T07:31:56.341Z,1009.34
2018-05-23T07:32:56.352Z,1009.36
2018-05-23T07:33:56.352Z,1009.35
2018-05-23T07:34:56.359Z,1009.36
2018-05-23T07:35:56.367Z,1009.34
2018-05-23T07:36:56.377Z,1009.42
2018-05-23T07:37:56.377Z,1009.37
2018-05-23T07:38:56.385Z,1009.33
2018-05-23T07:39:56.392Z,1009.33
2018-05-23T07:40:56.399Z,1009.36
2018-05-23T07:41:56.404Z,1009.41
2018-05-23T07:42:56.411Z,1009.37
2018-05-23T07:43:56.419Z,1009.36
2018-05-23T07:44:56.425Z,1009.34
2018-05-23T07:45:56.439Z,1009.37
2018-05-23T07:46:56.441Z,1009.36
2018-05-23T07:47:56.444Z,1009.40
2018-05-23T07:48:56.451Z,1009.38
2018-05-23T07:49:56.457Z,1009.36
2018-05-23T07:50:56.464Z,1009.38
2018-05-23T07:51:56.481Z,1009.38
2018-05-23T07:52:56.479Z,1009.42
2018-05-23T07:53:56.485Z,1009.45
2018-05-23T07:54:56.494Z,1009.44
2018-05-23T07:55:56.499Z,1009.42
2018-05-23T07:56:56.505Z,1009.45
2018-05-23T07:57:56.512Z,1009.43
2018-05-23T07:58:56.520Z,1009.47
2018-05-23T07:59:56.528Z,1009.46
2018-05-23T08:00:56.536Z,1009.53
2018-05-23T08:01:56.541Z,1009.51
2018-05-23T08:02:56.549Z,1009.52
2018-05-23T08:03:56.557Z,1009.54
2018-05-23T08:04:56.563Z,1009.57
2018-05-23T08:05:56.569Z,1009.55
2018-05-23T08:06:56.577Z,1009.59
2018-05-23T08:07:56.590Z,1009.58
2018-05-23T08:08:56.593Z,1009.59
2018-05-23T08:09:56.604Z,1009.56
2018-05-23T08:10:56.608Z,1009.56
2018-05-23T08:11:56.615Z,1009.60
2018-05-23T08:12:56.623Z,1009.60
2018-05-23T08:13:56.637Z,1009.64
2018-05-23T08:14:56.639Z,1009.65
2018-05-23T08:15:56.648Z,1009.65
2018-05-23T08:16:56.653Z,1009.69
2018-05-23T08:17:56.667Z,1009.68
2018-05-23T08:18:56.668Z,1009.73
2018-05-23T08:19:56.676Z,1009.71
2018-05-23T08:20:56.685Z,1009.75
2018-05-23T08:21:56.693Z,1009.77
2018-05-23T08:22:56.700Z,1009.77
2018-05-23T08:23:56.708Z,1009.78
2018-05-23T08:24:56.717Z,1009.77
2018-05-23T08:25:56.728Z,1009.75
2018-05-23T08:26:56.733Z,1009.76
2018-05-23T08:27:56.742Z,1009.75
2018-05-23T08:28:56.752Z,1009.76
2018-05-23T08:29:56.760Z,1009.74
2018-05-23T08:30:56.767Z,1009.77
2018-05-23T08:31:56.775Z,1009.75
2018-05-23T08:32:56.787Z,1009.74
2018-05-23T08:33:56.792Z,1009.73
2018-05-23T08:34:56.801Z,1009.73
2018-05-23T08:35:56.814Z,1009.75
2018-05-23T08:36:56.819Z,1009.74
2018-05-23T08:37:56.827Z,1009.75
2018-05-23T08:38:56.837Z,1009.79
2018-05-23T08:39:56.846Z,1009.77
2018-05-23T08:40:56.856Z,1009.85
2018-05-23T08:41:56.865Z,1009.82
2018-05-23T08:42:56.874Z,1009.87
2018-05-23T08:43:56.885Z,1009.86
2018-05-23T08:44:56.895Z,1009.90
2018-05-23T08:45:56.930Z,1009.91
2018-05-23T08:46:56.913Z,1009.93
2018-05-23T08:47:56.927Z,1009.92
2018-05-23T08:48:56.933Z,1009.95
2018-05-23T08:49:56.943Z,1009.96
2018-05-23T08:50:56.953Z,1009.97
2018-05-23T08:51:56.964Z,1010.04
2018-05-23T08:52:56.974Z,1010.04
2018-05-23T08:53:56.984Z,1010.00
2018-05-23T08:54:56.995Z,1010.05
2018-05-23T08:55:57.006Z,1010.04
2018-05-23T08:56:57.017Z,1010.13
2018-05-23T08:57:57.026Z,1010.09
2018-05-23T08:58:57.041Z,1010.12
2018-05-23T08:59:57.048Z,1010.14
2018-05-23T09:00:57.059Z,1010.19
2018-05-23T09:01:57.071Z,1010.12
2018-05-23T09:02:57.082Z,1010.12
2018-05-23T09:03:57.093Z,1010.18
2018-05-23T09:04:57.137Z,1010.21
2018-05-23T09:05:57.114Z,1010.08
2018-05-23T09:06:57.127Z,1010.19
2018-05-23T09:07:57.139Z,1010.14
2018-05-23T09:08:57.151Z,1010.18
2018-05-23T09:09:57.165Z,1010.11
2018-05-23T09:10:57.174Z,1010.08
2018-05-23T09:11:57.186Z,1010.10
2018-05-23T09:12:57.198Z,1010.15
2018-05-23T09:13:57.258Z,1010.22
2018-05-23T09:14:57.220Z,1010.27
2018-05-23T09:15:57.232Z,1010.37
2018-05-23T09:16:57.243Z,1010.33
2018-05-23T09:17:57.255Z,1010.40
2018-05-23T09:18:57.266Z,1010.44
2018-05-23T09:19:57.278Z,1010.46
2018-05-23T09:20:57.292Z,1010.44
2018-05-23T09:21:57.302Z,1010.49
2018-05-23T09:22:57.314Z,1010.52
2018-05-23T09:23:57.327Z,1010.51
2018-05-23T09:24:57.339Z,1010.54
2018-05-23T09:25:57.350Z,1010.60
2018-05-23T09:26:57.363Z,1010.67
2018-05-23T09:27:57.375Z,1010.67
2018-05-23T09:28:57.389Z,1010.65
2018-05-23T09:29:57.401Z,1010.65
2018-05-23T09:30:57.497Z,1010.60
2018-05-23T09:31:57.432Z,1010.64
2018-05-23T09:32:57.442Z,1010.64
2018-05-23T09:33:57.452Z,1010.71
2018-05-23T09:34:57.470Z,1010.70
2018-05-23T09:35:57.483Z,1010.72
2018-05-23T09:36:57.494Z,1010.69
2018-05-23T09:37:57.506Z,1010.72
2018-05-23T09:38:57.521Z,1010.69
2018-05-23T09:39:57.537Z,1010.54
2018-05-23T09:40:57.553Z,1010.47
2018-05-23T09:41:57.562Z,1010.45
2018-05-23T09:42:57.580Z,1010.40
2018-05-23T09:43:57.591Z,1010.39
2018-05-23T09:44:57.606Z,1010.41
2018-05-23T09:45:57.619Z,1010.45
2018-05-23T09:46:57.632Z,1010.52
2018-05-23T09:47:57.646Z,1010.59
2018-05-23T09:48:57.660Z,1010.56
2018-05-23T09:49:57.673Z,1010.69
2018-05-23T09:50:57.687Z,1010.57
2018-05-23T09:51:57.701Z,1010.54
2018-05-23T09:52:57.714Z,1010.56
2018-05-23T09:53:57.725Z,1010.61
2018-05-23T09:54:57.782Z,1010.64
2018-05-23T09:55:57.754Z,1010.58
2018-05-23T09:56:57.768Z,1010.54
2018-05-23T09:57:57.780Z,1010.57
2018-05-23T09:58:57.793Z,1010.54
2018-05-23T09:59:57.810Z,1010.63
2018-05-23T10:00:57.819Z,1010.61
2018-05-23T10:01:57.832Z,1010.57
2018-05-23T10:02:57.843Z,1010.52
2018-05-23T10:03:57.864Z,1010.53
2018-05-23T10:04:57.869Z,1010.55
2018-05-23T10:05:57.881Z,1010.48
2018-05-23T10:06:57.893Z,1010.58
2018-05-23T10:07:57.905Z,1010.57
2018-05-23T10:08:57.918Z,1010.56
2018-05-23T10:09:57.929Z,1010.57
2018-05-23T10:10:57.944Z,1010.54
2018-05-23T10:11:57.954Z,1010.59
2018-05-23T10:12:57.968Z,1010.62
2018-05-23T10:13:57.976Z,1010.62
2018-05-23T10:14:57.990Z,1010.62
2018-05-23T10:15:58.000Z,1010.64
2018-05-23T10:16:58.012Z,1010.64
2018-05-23T10:17:58.022Z,1010.70
2018-05-23T10:18:58.035Z,1010.65
2018-05-23T10:19:58.052Z,1010.67
2018-05-23T10:20:58.058Z,1010.65
2018-05-23T10:21:58.068Z,1010.64
2018-05-23T10:22:58.090Z,1010.65
2018-05-23T10:23:58.091Z,1010.68
2018-05-23T10:24:58.102Z,1010.68
2018-05-23T10:25:58.112Z,1010.64
2018-05-23T10:26:58.123Z,1010.66
2018-05-23T10:27:58.135Z,1010.65
2018-05-23T10:28:58.145Z,1010.65
2018-05-23T10:29:58.157Z,1010.65
2018-05-23T10:30:58.167Z,1010.68
2018-05-23T10:31:58.178Z,1010.71
2018-05-23T10:32:58.189Z,1010.70
2018-05-23T10:33:58.203Z,1010.74
2018-05-23T10:34:58.209Z,1010.74
2018-05-23T10:35:58.220Z,1010.79
2018-05-23T10:36:58.231Z,1010.73
2018-05-23T10:37:58.242Z,1010.73
2018-05-23T10:38:58.273Z,1010.75
2018-05-23T10:39:58.264Z,1010.76
2018-05-23T10:40:58.273Z,1010.71
2018-05-23T10:41:58.283Z,1010.80
2018-05-23T10:42:58.294Z,1010.77
2018-05-23T10:43:58.303Z,1010.81
2018-05-23T10:44:58.313Z,1010.79
2018-05-23T10:45:58.323Z,1010.83
2018-05-23T10:46:58.334Z,1010.87
2018-05-23T10:47:58.344Z,1010.85
2018-05-23T10:48:58.356Z,1010.89
2018-05-23T10:49:58.365Z,1010.86
2018-05-23T10:50:58.374Z,1010.87
2018-05-23T10:51:58.456Z,1010.89
2018-05-23T10:52:58.397Z,1010.93
2018-05-23T10:53:58.405Z,1010.91
2018-05-23T10:54:58.417Z,1011.02
2018-05-23T10:55:58.427Z,1010.93
2018-05-23T10:56:58.437Z,1011.07
2018-05-23T10:57:58.447Z,1011.04
2018-05-23T10:58:58.458Z,1011.06
2018-05-23T10:59:58.469Z,1011.04
2018-05-23T11:00:58.479Z,1011.00
2018-05-23T11:01:58.489Z,1010.97
2018-05-23T11:02:58.521Z,1010.97
2018-05-23T11:03:58.510Z,1010.93
2018-05-23T11:04:58.520Z,1010.96
2018-05-23T11:05:58.559Z,1010.95
2018-05-23T11:06:58.541Z,1010.99
2018-05-23T11:07:58.552Z,1011.00
2018-05-23T11:08:58.647Z,1011.02
2018-05-23T11:09:58.573Z,1011.02
2018-05-23T11:10:58.585Z,1011.06
2018-05-23T11:11:58.595Z,1011.04
2018-05-23T11:12:58.606Z,1011.08
2018-05-23T11:13:58.621Z,1011.11
2018-05-23T11:14:58.631Z,1011.09
2018-05-23T11:15:58.638Z,1011.03
2018-05-23T11:16:58.648Z,1011.08
2018-05-23T11:17:58.659Z,1011.05
2018-05-23T11:18:58.671Z,1011.03
2018-05-23T11:19:58.681Z,1011.01
2018-05-23T11:20:58.692Z,1011.06
2018-05-23T11:21:58.702Z,1011.03
2018-05-23T11:22:58.712Z,1010.99
2018-05-23T11:23:58.725Z,1010.98
2018-05-23T11:24:58.735Z,1011.02
2018-05-23T11:25:58.745Z,1011.04
2018-05-23T11:26:58.755Z,1011.02
2018-05-23T11:27:58.768Z,1011.03
2018-05-23T11:28:58.776Z,1011.00
2018-05-23T11:29:58.786Z,1011.00
2018-05-23T11:30:58.797Z,1011.01
2018-05-23T11:31:58.808Z,1011.04
2018-05-23T11:32:58.820Z,1011.03
2018-05-23T11:33:58.829Z,1011.00
2018-05-23T11:34:58.840Z,1011.01
2018-05-23T11:35:58.851Z,1011.05
2018-05-23T11:36:58.861Z,1011.04
2018-05-23T11:37:58.872Z,1011.05
2018-05-23T11:38:58.883Z,1011.07
2018-05-23T11:39:58.896Z,1011.04
2018-05-23T11:40:58.904Z,1011.08
2018-05-23T11:41:58.913Z,1011.11
2018-05-23T11:42:58.924Z,1011.11
2018-05-23T11:43:58.942Z,1011.14
2018-05-23T11:44:58.947Z,1011.12
2018-05-23T11:45:58.955Z,1011.15
2018-05-23T11:46:58.966Z,1011.14
2018-05-23T11:47:58.976Z,1011.12
2018-05-23T11:48:58.988Z,1011.10
2018-05-23T11:49:58.998Z,1011.16
2018-05-23T11:50:59.007Z,1011.15
2018-05-23T11:51:59.020Z,1011.07
2018-05-23T11:52:59.028Z,1011.10
2018-05-23T11:53:59.040Z,1011.11
2018-05-23T11:54:59.049Z,1011.10
2018-05-23T11:55:59.059Z,1011.14
2018-05-23T11:56:59.071Z,1011.11
2018-05-23T11:57:59.081Z,1011.09
2018-05-23T11:58:59.090Z,1011.05
2018-05-23T11:59:59.100Z,1011.04
2018-05-23T12:00:59.115Z,1011.04
2018-05-23T12:01:59.231Z,1011.07
2018-05-23T12:02:59.132Z,1011.11
2018-05-23T12:03:59.141Z,1011.07
2018-05-23T12:04:59.152Z,1011.07
2018-05-23T12:05:59.161Z,1011.09